Time;durP1;ratioP1;P1;durP2;ratioP2;P2;SDS_P1;SDS_P2;PMS_P1;PMS_P2;Temp;Humidity;BMP_temperature;BMP_pressure;BME280_temperature;BME280_humidity;BME280_pressure;Samples;Min_cycle;Max_cycle;Signal;HPM_P1;HPM_P2
2021/04/22 00:01:34;;;;;;;11.13;2.65;;;;;;;3.86;62.05;102375.56;5013614;28;20064;-46
2021/04/22 00:04:02;;;;;;;15.23;3.22;;;;;;;3.82;62.59;102381.69;5012307;28;20052;-51
2021/04/22 00:06:29;;;;;;;22.65;3.53;;;;;;;3.80;62.44;102382.59;5013002;28;20050;-48
2021/04/22 00:08:55;;;;;;;21.80;4.00;;;;;;;3.84;62.58;102377.31;5012127;28;20061;-49
2021/04/22 00:11:22;;;;;;;16.92;3.38;;;;;;;3.97;62.37;102379.78;5013786;28;20042;-51
2021/04/22 00:13:48;;;;;;;19.90;3.30;;;;;;;3.88;62.52;102383.34;5013490;28;20854;-46
2021/04/22 00:16:15;;;;;;;16.65;2.90;;;;;;;3.79;62.43;102384.34;5013598;28;20046;-50
2021/04/22 00:18:41;;;;;;;15.68;3.50;;;;;;;3.83;62.60;102382.53;5013450;28;20503;-48
2021/04/22 00:21:08;;;;;;;19.02;3.45;;;;;;;3.73;62.58;102387.00;5012432;28;20389;-46
2021/04/22 00:23:35;;;;;;;18.50;3.50;;;;;;;3.71;63.20;102383.56;5013335;28;20054;-48
2021/04/22 00:26:02;;;;;;;20.35;4.53;;;;;;;3.66;62.87;102382.75;5012199;28;20046;-49
2021/04/22 00:28:28;;;;;;;17.65;3.00;;;;;;;3.64;63.37;102385.38;5012122;28;20050;-46
2021/04/22 00:30:55;;;;;;;20.85;3.83;;;;;;;3.70;62.91;102389.66;4979891;28;20096;-45
2021/04/22 00:33:22;;;;;;;18.52;2.95;;;;;;;3.66;63.13;102382.75;5013477;28;20045;-48
2021/04/22 00:35:50;;;;;;;21.52;3.60;;;;;;;3.64;62.81;102381.91;5012162;28;20061;-48
2021/04/22 00:38:17;;;;;;;21.58;3.58;;;;;;;3.69;62.69;102385.31;5011976;28;20054;-50
2021/04/22 00:40:44;;;;;;;20.23;3.72;;;;;;;3.61;63.35;102384.53;5012134;28;20489;-51
2021/04/22 00:43:13;;;;;;;17.92;3.72;;;;;;;3.66;63.06;102382.75;5028451;28;20057;-45
2021/04/22 00:45:42;;;;;;;15.25;3.80;;;;;;;3.67;62.69;102390.53;5011757;28;20030;-48
2021/04/22 00:48:10;;;;;;;16.48;3.78;;;;;;;3.65;62.51;102388.84;4995884;28;20050;-49
2021/04/22 00:50:38;;;;;;;18.70;3.63;;;;;;;3.63;63.05;102388.84;5011389;28;20045;-48
2021/04/22 00:53:05;;;;;;;20.45;3.67;;;;;;;3.62;62.90;102391.47;4995328;28;20057;-48
2021/04/22 00:55:31;;;;;;;15.50;4.22;;;;;;;3.68;62.78;102394.88;5012585;28;20050;-48
2021/04/22 00:57:58;;;;;;;20.15;3.60;;;;;;;3.71;62.62;102397.44;5028160;28;20084;-49
2021/04/22 01:00:29;;;;;;;17.70;3.70;;;;;;;3.64;62.85;102398.38;5011735;28;20056;-48
2021/04/22 01:02:56;;;;;;;15.43;3.00;;;;;;;3.60;62.80;102403.63;5011535;28;20128;-45
2021/04/22 01:05:35;;;;;;;15.40;3.13;;;;;;;3.61;62.67;102411.41;5012511;28;20041;-46
2021/04/22 01:08:02;;;;;;;17.65;3.75;;;;;;;3.54;62.89;102414.97;5010127;28;20050;-45
2021/04/22 01:10:28;;;;;;;15.10;3.50;;;;;;;3.53;63.17;102411.50;5011902;28;20081;-51
2021/04/22 01:12:54;;;;;;;16.30;3.70;;;;;;;3.48;63.23;102409.84;5011112;28;20065;-50
2021/04/22 01:15:23;;;;;;;20.38;3.92;;;;;;;3.39;63.56;102410.78;5011321;28;20049;-52
2021/04/22 01:17:50;;;;;;;16.85;3.58;;;;;;;3.35;64.22;102404.78;5012700;28;20546;-48
2021/04/22 01:20:22;;;;;;;18.63;3.78;;;;;;;3.33;63.96;102422.13;5011405;28;20046;-52
2021/04/22 01:22:54;;;;;;;15.93;3.15;;;;;;;3.35;63.94;102414.28;5011353;28;20397;-50
2021/04/22 01:25:43;;;;;;;13.85;3.17;;;;;;;3.40;63.54;102417.72;5012521;28;20054;-47
2021/04/22 01:28:13;;;;;;;19.15;3.33;;;;;;;3.30;63.77;102419.56;5012540;28;20153;-48
2021/04/22 01:30:44;;;;;;;14.95;3.22;;;;;;;3.27;63.89;102416.09;5012413;28;20112;-47
2021/04/22 01:33:13;;;;;;;19.45;4.00;;;;;;;3.27;63.40;102421.31;5012382;28;20187;-47
2021/04/22 01:35:43;;;;;;;23.38;3.55;;;;;;;3.20;64.14;102423.09;5012237;28;20497;-47
2021/04/22 01:38:11;;;;;;;13.75;3.45;;;;;;;3.16;64.55;102424.88;5011295;28;20488;-49
2021/04/22 01:40:38;;;;;;;18.88;3.60;;;;;;;3.19;63.86;102423.97;5012193;28;20061;-47
2021/04/22 01:43:05;;;;;;;23.95;3.47;;;;;;;3.29;63.61;102422.16;5011285;28;20065;-48
2021/04/22 01:45:32;;;;;;;18.98;3.78;;;;;;;3.22;64.03;102416.16;5010930;28;20041;-48
2021/04/22 01:47:59;;;;;;;19.90;4.07;;;;;;;3.24;63.48;102424.78;5012135;28;20034;-50
2021/04/22 01:50:27;;;;;;;14.90;3.22;;;;;;;3.27;64.10;102427.34;5011057;28;20128;-50
2021/04/22 01:52:54;;;;;;;11.63;3.10;;;;;;;3.19;64.39;102430.06;5012287;28;20050;-52
2021/04/22 01:55:28;;;;;;;19.25;3.40;;;;;;;3.22;64.60;102434.38;5011112;28;20054;-52
2021/04/22 01:57:54;;;;;;;16.08;3.78;;;;;;;3.17;65.22;102436.13;5012101;28;20057;-52
2021/04/22 02:00:25;;;;;;;16.42;3.08;;;;;;;3.10;65.97;102437.06;5012235;28;20492;-50
2021/04/22 02:02:52;;;;;;;22.33;3.80;;;;;;;3.03;65.54;102436.25;5012117;28;20057;-46
2021/04/22 02:05:19;;;;;;;16.13;3.65;;;;;;;2.99;65.88;102437.16;5010933;28;20054;-53
2021/04/22 02:07:46;;;;;;;17.05;4.70;;;;;;;3.05;65.78;102439.69;5011739;28;20038;-46
2021/04/22 02:10:13;;;;;;;15.10;3.70;;;;;;;3.01;65.91;102435.41;5011923;28;20054;-46
2021/04/22 02:12:39;;;;;;;15.98;4.05;;;;;;;2.92;66.25;102435.47;5011784;28;20493;-45
2021/04/22 02:15:09;;;;;;;18.20;3.35;;;;;;;3.02;65.72;102429.31;5012550;28;20056;-47
2021/04/22 02:17:35;;;;;;;19.15;3.75;;;;;;;2.94;66.05;102439.78;5010097;28;20112;-47
2021/04/22 02:20:10;;;;;;;15.60;3.65;;;;;;;2.87;66.54;102445.91;5015519;28;20057;-50
2021/04/22 02:22:37;;;;;;;16.70;4.93;;;;;;;2.83;66.57;102445.03;5015817;28;20050;-50
2021/04/22 02:25:06;;;;;;;21.23;4.82;;;;;;;2.73;66.87;102446.00;5014644;28;20050;-45
2021/04/22 02:27:33;;;;;;;13.80;4.05;;;;;;;2.74;67.28;102441.66;5015443;28;20099;-47
2021/04/22 02:29:59;;;;;;;12.25;3.05;;;;;;;2.66;66.91;102444.34;5014566;28;20045;-46
2021/04/22 02:32:25;;;;;;;18.25;3.38;;;;;;;2.46;68.30;102447.03;5014432;28;20085;-49
2021/04/22 02:34:52;;;;;;;19.85;3.75;;;;;;;2.38;68.26;102439.28;5015426;28;20806;-48
2021/04/22 02:37:18;;;;;;;18.13;3.85;;;;;;;2.35;68.39;102447.09;5015402;28;20042;-47
2021/04/22 02:39:44;;;;;;;14.65;3.55;;;;;;;2.41;67.77;102441.00;5014254;28;20050;-46
2021/04/22 02:42:11;;;;;;;13.85;3.42;;;;;;;2.42;67.92;102443.59;5014457;28;20505;-49
2021/04/22 02:44:39;;;;;;;15.68;3.70;;;;;;;2.56;67.50;102450.44;5014141;28;20501;-50
2021/04/22 02:47:05;;;;;;;14.38;4.03;;;;;;;2.68;67.09;102442.56;5014193;28;20050;-48
2021/04/22 02:49:32;;;;;;;20.77;4.25;;;;;;;2.51;67.61;102446.13;4997659;28;20073;-45
2021/04/22 02:51:58;;;;;;;16.83;3.88;;;;;;;2.35;68.49;102441.91;5015183;28;20049;-45
2021/04/22 02:54:24;;;;;;;15.65;3.45;;;;;;;2.43;68.08;102447.06;5015209;28;20069;-47
2021/04/22 02:56:51;;;;;;;15.70;4.05;;;;;;;2.24;68.57;102441.09;5015097;28;20384;-48
2021/04/22 02:59:17;;;;;;;17.50;4.03;;;;;;;2.36;68.11;102444.47;5013782;28;20081;-51
2021/04/22 03:01:43;;;;;;;17.65;4.43;;;;;;;2.35;68.28;102439.31;5013917;28;20045;-50
2021/04/22 03:04:09;;;;;;;19.63;4.25;;;;;;;2.43;68.27;102437.53;5013943;28;20057;-47
2021/04/22 03:06:36;;;;;;;16.38;3.63;;;;;;;2.45;67.89;102437.50;5014705;28;20057;-47
2021/04/22 03:09:03;;;;;;;21.60;4.95;;;;;;;2.39;68.21;102441.00;5013667;28;20054;-52
2021/04/22 03:11:29;;;;;;;14.80;3.42;;;;;;;2.35;67.96;102442.75;5015023;28;20052;-47
2021/04/22 03:13:56;;;;;;;17.50;4.25;;;;;;;2.34;67.95;102446.22;5014943;28;20089;-53
2021/04/22 03:16:22;;;;;;;13.35;3.33;;;;;;;2.34;67.12;102448.81;5013897;28;20045;-49
2021/04/22 03:18:49;;;;;;;12.18;3.80;;;;;;;2.40;66.98;102450.53;5014004;28;20449;-46
2021/04/22 03:21:15;;;;;;;15.50;3.90;;;;;;;2.38;67.31;102454.84;5014345;28;20444;-47
2021/04/22 03:23:42;;;;;;;16.77;3.17;;;;;;;2.38;67.80;102444.47;4996423;28;20061;-46
2021/04/22 03:26:08;;;;;;;15.35;4.15;;;;;;;2.29;68.18;102449.69;5029700;28;20488;-47
2021/04/22 03:28:34;;;;;;;14.05;3.63;;;;;;;2.30;67.84;102451.44;4996992;28;20068;-50
2021/04/22 03:31:01;;;;;;;19.10;3.80;;;;;;;2.25;67.81;102460.97;5012388;28;20050;-47
2021/04/22 03:33:27;;;;;;;14.32;3.83;;;;;;;2.30;67.36;102459.22;5013131;28;20052;-47
2021/04/22 03:35:53;;;;;;;17.38;3.70;;;;;;;2.40;67.50;102457.44;5014081;28;20084;-47
2021/04/22 03:38:19;;;;;;;14.23;3.72;;;;;;;2.29;68.54;102460.97;5012684;28;20531;-46
2021/04/22 03:40:46;;;;;;;18.67;3.92;;;;;;;2.30;68.12;102457.47;4996647;28;20054;-48
2021/04/22 03:43:12;;;;;;;20.40;4.40;;;;;;;2.26;68.96;102462.72;5013174;28;20044;-49
2021/04/22 03:45:39;;;;;;;16.45;4.22;;;;;;;2.22;69.19;102467.03;5013066;28;20056;-49
2021/04/22 03:48:05;;;;;;;20.60;3.72;;;;;;;2.23;68.69;102470.53;5012986;28;20042;-50
2021/04/22 03:50:36;;;;;;;12.75;3.28;;;;;;;2.16;68.45;102473.13;5014233;28;20049;-47
2021/04/22 03:53:02;;;;;;;18.95;3.53;;;;;;;2.20;68.47;102467.06;5012915;28;20056;-47
2021/04/22 03:55:29;;;;;;;17.05;3.55;;;;;;;2.18;68.24;102478.31;5028986;28;20056;-48
2021/04/22 03:57:55;;;;;;;15.68;3.88;;;;;;;2.13;69.08;102474.91;5013603;28;20547;-48
2021/04/22 04:00:23;;;;;;;13.38;3.58;;;;;;;2.15;68.96;102468.78;5013401;28;20057;-47
2021/04/22 04:02:50;;;;;;;13.63;2.92;;;;;;;2.11;68.84;102472.28;5012328;28;20056;-47
2021/04/22 04:05:16;;;;;;;17.20;3.63;;;;;;;2.11;69.10;102469.69;5012642;28;20068;-46
2021/04/22 04:07:43;;;;;;;17.75;3.67;;;;;;;2.08;69.50;102474.88;5013430;28;20049;-48
2021/04/22 04:10:10;;;;;;;18.05;4.50;;;;;;;2.05;69.33;102468.88;5013492;28;20053;-47
2021/04/22 04:12:37;;;;;;;16.33;3.78;;;;;;;2.10;69.19;102469.69;5012194;28;20381;-51
2021/04/22 04:15:04;;;;;;;12.60;3.70;;;;;;;2.14;69.24;102480.06;5012448;28;20054;-47
2021/04/22 04:17:31;;;;;;;14.45;3.80;;;;;;;2.12;69.53;102474.00;5013480;28;20051;-45
2021/04/22 04:19:58;;;;;;;17.10;3.80;;;;;;;2.13;69.18;102477.50;5012039;28;20038;-47
2021/04/22 04:22:24;;;;;;;19.25;4.30;;;;;;;2.12;69.11;102479.19;4995983;28;20065;-46
2021/04/22 04:24:51;;;;;;;20.63;4.35;;;;;;;2.19;69.29;102480.03;5012125;28;20058;-52
2021/04/22 04:27:17;;;;;;;22.10;3.67;;;;;;;2.20;69.57;102480.03;5012002;28;20588;-51
2021/04/22 04:29:45;;;;;;;16.13;4.68;;;;;;;2.13;70.08;102480.09;5013450;28;20049;-48
2021/04/22 04:32:11;;;;;;;16.00;4.50;;;;;;;2.16;69.52;102480.91;5013101;28;20056;-48
2021/04/22 04:34:37;;;;;;;13.43;3.47;;;;;;;2.16;69.70;102480.06;5011865;28;20046;-51
2021/04/22 04:37:04;;;;;;;15.40;3.20;;;;;;;2.20;69.54;102482.63;5013116;28;20046;-46
2021/04/22 04:39:31;;;;;;;21.48;4.22;;;;;;;2.14;69.24;102482.66;5028216;28;20049;-48
2021/04/22 04:41:57;;;;;;;16.95;3.45;;;;;;;2.17;69.45;102487.00;4995498;28;20054;-49
2021/04/22 04:44:24;;;;;;;20.33;3.60;;;;;;;2.19;69.61;102480.91;5011976;28;20045;-49
2021/04/22 04:46:50;;;;;;;16.38;3.67;;;;;;;2.23;69.25;102481.75;5011731;28;20088;-50
2021/04/22 04:49:17;;;;;;;14.13;3.42;;;;;;;2.24;69.21;102490.44;5013167;28;20559;-49
2021/04/22 04:51:43;;;;;;;15.07;3.17;;;;;;;2.28;69.23;102494.75;5012984;28;20045;-48
2021/04/22 04:54:09;;;;;;;12.57;3.45;;;;;;;2.32;69.48;102492.13;5012889;28;20057;-49
2021/04/22 04:56:36;;;;;;;14.23;3.00;;;;;;;2.35;69.15;102499.03;4995440;28;20057;-53
2021/04/22 04:59:02;;;;;;;13.73;4.07;;;;;;;2.40;69.34;102492.09;5012912;28;20104;-50
2021/04/22 05:01:28;;;;;;;16.88;3.40;;;;;;;2.42;68.88;102486.88;5013038;28;20493;-51
2021/04/22 05:03:55;;;;;;;14.00;3.63;;;;;;;2.49;68.50;102486.81;5012671;28;20042;-53
2021/04/22 05:06:21;;;;;;;15.15;3.28;;;;;;;2.49;68.59;102497.22;5027783;28;20493;-46
2021/04/22 05:08:47;;;;;;;16.23;3.10;;;;;;;2.56;68.47;102489.41;5012489;28;20042;-49
2021/04/22 05:11:15;;;;;;;12.77;3.03;;;;;;;2.61;67.83;102498.03;5011794;28;20522;-51
2021/04/22 05:13:41;;;;;;;17.23;3.35;;;;;;;2.61;67.56;102496.28;5012557;28;20141;-49
2021/04/22 05:16:08;;;;;;;15.45;2.95;;;;;;;2.65;66.79;102499.75;5012580;28;20049;-49
2021/04/22 05:18:34;;;;;;;15.27;2.63;;;;;;;2.85;65.88;102500.50;5027527;28;20046;-50
2021/04/22 05:21:00;;;;;;;17.65;3.00;;;;;;;2.81;65.72;102501.38;5011242;28;20057;-52
2021/04/22 05:23:27;;;;;;;15.88;3.20;;;;;;;2.89;65.70;102503.94;5027617;28;20181;-53
2021/04/22 05:25:54;;;;;;;15.32;3.00;;;;;;;2.93;65.50;102507.38;5010830;28;20061;-49
2021/04/22 05:28:22;;;;;;;12.25;2.85;;;;;;;2.95;65.61;102503.88;5012405;28;20046;-49
2021/04/22 05:30:49;;;;;;;18.92;2.83;;;;;;;3.02;65.22;102505.56;5027390;28;20057;-52
2021/04/22 05:33:15;;;;;;;16.15;3.03;;;;;;;3.02;64.62;102510.75;5011256;28;20547;-49
2021/04/22 05:35:43;;;;;;;16.88;3.50;;;;;;;3.07;64.67;102515.06;5012027;28;20136;-50
2021/04/22 05:38:11;;;;;;;10.77;2.65;;;;;;;3.14;64.18;102521.97;5011716;28;20053;-48
2021/04/22 05:40:37;;;;;;;17.10;3.65;;;;;;;3.18;64.13;102518.47;5010799;28;20526;-47
2021/04/22 05:43:07;;;;;;;16.95;3.00;;;;;;;3.21;63.60;102521.03;5010831;28;20092;-48
2021/04/22 05:45:35;;;;;;;20.95;3.40;;;;;;;3.26;63.99;102528.78;5010701;28;20065;-45
2021/04/22 05:48:01;;;;;;;13.65;2.70;;;;;;;3.35;63.39;102526.13;5011957;28;20052;-49
2021/04/22 05:50:31;;;;;;;14.88;2.70;;;;;;;3.39;63.32;102535.63;5012200;28;20057;-50
2021/04/22 05:53:01;;;;;;;17.85;3.22;;;;;;;3.47;63.65;102533.81;4981422;28;20038;-47
2021/04/22 05:55:27;;;;;;;19.50;3.30;;;;;;;3.61;63.36;102538.06;5001277;28;20092;-51
2021/04/22 05:57:55;;;;;;;17.95;3.20;;;;;;;3.61;63.19;102545.88;5017230;28;20046;-47
2021/04/22 06:00:22;;;;;;;14.27;2.45;;;;;;;3.67;62.33;102540.63;5018869;28;20064;-49
2021/04/22 06:02:49;;;;;;;10.32;2.67;;;;;;;3.80;62.20;102546.56;5018540;28;20560;-47
2021/04/22 06:05:16;;;;;;;12.45;2.45;;;;;;;3.76;62.30;102548.31;5018512;28;20351;-48
2021/04/22 06:07:44;;;;;;;9.40;2.50;;;;;;;3.78;62.27;102551.78;5018263;28;20435;-49
2021/04/22 06:10:11;;;;;;;13.43;2.83;;;;;;;3.84;61.63;102550.84;5017473;28;20498;-52
2021/04/22 06:12:38;;;;;;;14.93;2.42;;;;;;;3.86;61.77;102552.56;5016999;28;20117;-46
2021/04/22 06:15:06;;;;;;;11.55;2.45;;;;;;;3.95;61.48;102555.97;5017510;28;20060;-47
2021/04/22 06:17:32;;;;;;;12.43;2.40;;;;;;;4.07;60.90;102556.69;5017370;28;20401;-50
2021/04/22 06:19:58;;;;;;;13.70;3.13;;;;;;;4.16;60.63;102560.06;5017088;28;20497;-49
2021/04/22 06:22:25;;;;;;;12.48;2.53;;;;;;;4.31;59.78;102559.03;5018400;28;20508;-48
2021/04/22 06:24:51;;;;;;;10.57;2.45;;;;;;;4.40;59.80;102558.94;5017430;28;20448;-52
2021/04/22 06:27:17;;;;;;;14.35;3.10;;;;;;;4.46;59.67;102560.59;5017167;28;20049;-50
2021/04/22 06:29:44;;;;;;;12.63;2.72;;;;;;;4.56;59.83;102557.00;5017023;28;20061;-49
2021/04/22 06:32:11;;;;;;;13.27;2.70;;;;;;;4.82;58.87;102566.25;5000881;28;20085;-47
2021/04/22 06:34:37;;;;;;;12.18;2.40;;;;;;;4.93;57.62;102569.56;5018323;28;20382;-47
2021/04/22 06:37:04;;;;;;;10.57;2.58;;;;;;;5.07;56.58;102566.75;5017340;28;20054;-47
2021/04/22 06:39:31;;;;;;;12.15;2.80;;;;;;;5.19;57.12;102568.31;5000893;28;20060;-55
2021/04/22 06:41:57;;;;;;;10.95;2.97;;;;;;;5.29;56.54;102575.13;5018190;28;20103;-52
2021/04/22 06:44:24;;;;;;;13.07;2.75;;;;;;;5.51;56.14;102580.88;5017276;28;20370;-47
2021/04/22 06:46:50;;;;;;;16.60;2.75;;;;;;;5.66;55.52;102573.66;5017006;28;20049;-50
2021/04/22 06:49:17;;;;;;;13.02;3.35;;;;;;;5.72;53.63;102574.41;5018577;28;20128;-47
2021/04/22 06:51:43;;;;;;;12.48;2.25;;;;;;;5.81;54.73;102581.25;5016818;28;20426;-50
2021/04/22 06:54:09;;;;;;;17.15;2.50;;;;;;;5.95;53.54;102577.53;5018291;28;20046;-47
2021/04/22 06:56:37;;;;;;;15.18;2.55;;;;;;;6.03;53.02;102586.97;5017016;28;20066;-49
2021/04/22 06:59:04;;;;;;;13.48;2.67;;;;;;;6.25;52.86;102582.19;5000451;28;20046;-50
2021/04/22 07:01:31;;;;;;;10.77;2.30;;;;;;;6.43;52.64;102581.00;5016976;28;20056;-50
2021/04/22 07:03:58;;;;;;;12.30;2.60;;;;;;;6.57;52.24;102592.91;5033031;28;20054;-49
2021/04/22 07:06:25;;;;;;;8.52;1.88;;;;;;;6.77;52.17;102584.66;5012484;28;20073;-51
2021/04/22 07:08:51;;;;;;;17.50;2.92;;;;;;;6.97;49.85;102588.56;5013018;28;20054;-49
2021/04/22 07:11:18;;;;;;;10.32;2.10;;;;;;;7.09;49.97;102589.19;5014710;28;20053;-51
2021/04/22 07:13:44;;;;;;;13.00;2.50;;;;;;;7.33;49.69;102596.50;5014482;28;20065;-49
2021/04/22 07:16:11;;;;;;;11.23;2.35;;;;;;;7.48;48.53;102592.66;5013182;28;20104;-46
2021/04/22 07:18:37;;;;;;;10.63;2.25;;;;;;;7.59;47.38;102594.13;5014466;28;20048;-48
2021/04/22 07:21:04;;;;;;;14.30;2.78;;;;;;;7.70;47.45;102585.13;5014670;28;20056;-50
2021/04/22 07:23:32;;;;;;;10.40;2.05;;;;;;;7.72;47.00;102597.28;5013431;28;20050;-47
2021/04/22 07:25:58;;;;;;;11.63;2.33;;;;;;;7.86;46.96;102598.69;4997414;28;20492;-47
2021/04/22 07:28:25;;;;;;;8.95;1.98;;;;;;;8.02;46.99;102593.94;5013631;28;20592;-47
2021/04/22 07:30:57;;;;;;;10.77;2.25;;;;;;;8.27;45.88;102589.72;4997991;28;20092;-51
2021/04/22 07:33:23;;;;;;;12.68;2.50;;;;;;;8.40;45.69;102595.50;5013503;28;20069;-47
2021/04/22 07:35:50;;;;;;;12.23;2.72;;;;;;;8.61;45.05;102603.69;5014401;28;20053;-54
2021/04/22 07:38:17;;;;;;;9.23;2.30;;;;;;;8.60;44.41;102601.94;5014463;28;20049;-50
2021/04/22 07:40:44;;;;;;;13.70;3.03;;;;;;;8.51;44.10;102592.59;5014262;28;20042;-52
2021/04/22 07:43:11;;;;;;;12.63;2.42;;;;;;;8.46;44.52;102592.72;5013308;28;20496;-50
2021/04/22 07:45:40;;;;;;;14.18;2.67;;;;;;;8.43;44.22;102602.41;5014302;28;20061;-48
2021/04/22 07:48:07;;;;;;;15.27;2.75;;;;;;;8.56;44.02;102606.44;5013308;28;20112;-49
2021/04/22 07:50:34;;;;;;;15.77;3.17;;;;;;;8.51;44.14;102605.72;5014283;28;20088;-46
2021/04/22 07:53:05;;;;;;;12.07;2.13;;;;;;;8.44;43.73;102612.00;5012964;28;20436;-47
2021/04/22 07:55:33;;;;;;;8.23;2.10;;;;;;;8.67;43.83;102600.91;5014327;28;20046;-48
2021/04/22 07:58:00;;;;;;;17.08;2.50;;;;;;;8.91;42.45;102598.44;5012884;28;20069;-51
2021/04/22 08:00:28;;;;;;;10.70;2.78;;;;;;;9.25;42.98;102603.50;5014106;28;20057;-51
2021/04/22 08:02:54;;;;;;;12.15;2.53;;;;;;;9.35;43.04;102611.09;5013631;28;20057;-47
2021/04/22 08:05:29;;;;;;;10.35;2.40;;;;;;;9.35;42.38;102611.09;5012234;28;20069;-48
2021/04/22 08:08:05;;;;;;;15.77;2.47;;;;;;;9.24;42.09;102614.94;5013947;28;20101;-46
2021/04/22 08:10:34;;;;;;;10.07;3.00;;;;;;;9.21;42.46;102603.66;5012884;28;20060;-51
2021/04/22 08:13:03;;;;;;;13.35;2.60;;;;;;;9.02;42.54;102603.34;5012565;28;20722;-48
2021/04/22 08:15:34;;;;;;;8.20;2.35;;;;;;;9.13;43.82;102607.38;5013912;28;20465;-48
2021/04/22 08:18:01;;;;;;;12.60;2.60;;;;;;;9.20;43.13;102610.66;5012499;28;20061;-50
2021/04/22 08:20:28;;;;;;;12.18;2.60;;;;;;;9.40;41.59;102614.44;5013825;28;20133;-48
2021/04/22 08:22:58;;;;;;;10.10;2.38;;;;;;;9.68;40.98;102614.41;5012328;28;20042;-53
2021/04/22 08:25:34;;;;;;;13.70;3.08;;;;;;;9.90;40.91;102619.78;5013540;28;20116;-48
2021/04/22 08:28:01;;;;;;;15.50;3.00;;;;;;;10.04;41.16;102623.72;5013495;28;20046;-47
2021/04/22 08:30:31;;;;;;;11.75;2.47;;;;;;;10.16;39.73;102623.28;5013564;28;20049;-51
2021/04/22 08:32:59;;;;;;;15.75;3.50;;;;;;;10.23;39.89;102626.56;5013633;28;20041;-51
2021/04/22 08:35:26;;;;;;;11.77;2.65;;;;;;;10.32;40.52;102627.09;5013389;28;20049;-51
2021/04/22 08:37:53;;;;;;;10.80;2.72;;;;;;;10.51;40.28;102626.44;5012347;28;20046;-50
2021/04/22 08:40:20;;;;;;;11.50;2.30;;;;;;;10.51;39.55;102618.53;5028675;28;20046;-50
2021/04/22 08:42:46;;;;;;;10.98;2.45;;;;;;;10.59;39.55;102603.34;5013117;28;20536;-48
2021/04/22 08:45:15;;;;;;;10.27;2.20;;;;;;;10.69;39.14;102609.13;4995729;28;20144;-52
2021/04/22 08:47:43;;;;;;;7.65;2.30;;;;;;;10.86;38.15;102605.84;5012992;28;20108;-48
2021/04/22 08:50:30;;;;;;;8.85;2.20;;;;;;;10.76;38.47;102610.59;4995880;28;20045;-54
2021/04/22 08:53:00;;;;;;;10.18;2.95;;;;;;;10.98;37.64;102605.38;5011788;28;20421;-54
2021/04/22 08:55:30;;;;;;;13.93;2.40;;;;;;;11.14;38.13;102594.25;5028028;28;20401;-54
2021/04/22 08:57:58;;;;;;;10.13;2.47;;;;;;;11.38;36.84;102602.94;5011553;28;20058;-50
2021/04/22 09:00:28;;;;;;;10.05;2.30;;;;;;;11.37;37.17;102605.63;5011601;28;20049;-48
2021/04/22 09:02:54;;;;;;;14.88;2.80;;;;;;;11.45;37.52;102606.16;5012452;28;20046;-49
2021/04/22 09:05:21;;;;;;;13.00;2.67;;;;;;;11.39;37.51;102614.34;5012893;28;20489;-52
2021/04/22 09:07:50;;;;;;;12.18;2.40;;;;;;;11.56;35.87;102616.28;5011486;28;20049;-53
2021/04/22 09:10:21;;;;;;;10.32;2.60;;;;;;;11.82;36.32;102616.06;5011523;28;20481;-53
2021/04/22 09:13:03;;;;;;;9.52;2.60;;;;;;;12.05;35.26;102608.94;5012539;28;20124;-48
2021/04/22 09:15:32;;;;;;;11.48;2.70;;;;;;;12.10;34.68;102601.69;5012725;28;20056;-54
2021/04/22 09:18:02;;;;;;;8.13;2.42;;;;;;;12.51;34.41;102604.25;5011332;28;20074;-49
2021/04/22 09:20:32;;;;;;;12.75;2.47;;;;;;;12.79;34.58;102612.72;5011433;28;20136;-49
2021/04/22 09:22:59;;;;;;;10.63;2.42;;;;;;;12.87;35.59;102621.16;5012682;28;20115;-52
2021/04/22 09:25:26;;;;;;;11.48;2.67;;;;;;;12.85;34.49;102620.34;5012776;28;20398;-48
2021/04/22 09:28:09;;;;;;;12.10;2.80;;;;;;;12.52;34.31;102623.63;5010386;28;20054;-51
2021/04/22 09:30:45;;;;;;;10.18;2.25;;;;;;;12.12;35.76;102618.31;5012587;28;20057;-46
2021/04/22 09:33:31;;;;;;;10.02;2.65;;;;;;;12.30;36.04;102614.03;5011475;28;20045;-53
2021/04/22 09:36:09;;;;;;;10.38;2.42;;;;;;;12.26;35.42;102617.72;5012258;28;20054;-54
2021/04/22 09:38:36;;;;;;;10.93;2.60;;;;;;;12.18;36.36;102612.78;5012460;28;20124;-54
2021/04/22 09:41:24;;;;;;;13.95;2.80;;;;;;;12.41;36.59;102625.88;4983667;28;20057;-50
2021/04/22 09:44:09;;;;;;;7.55;2.47;;;;;;;12.25;35.89;102629.19;5011354;28;20046;-55
2021/04/22 09:46:42;;;;;;;8.88;2.30;;;;;;;12.22;35.72;102621.41;5011120;28;20120;-48
2021/04/22 09:49:13;;;;;;;;;;;;;;;12.30;35.34;102627.22;5011709;28;20378;-56
2021/04/22 09:51:40;;;;;;;10.50;2.22;;;;;;;12.95;34.17;102621.66;5011153;28;19921;-52
2021/04/22 09:54:18;;;;;;;12.10;2.63;;;;;;;13.28;33.98;102617.44;5011359;28;20488;-53
2021/04/22 09:56:52;;;;;;;9.90;2.70;;;;;;;13.66;33.32;102617.38;5011990;28;20048;-50
2021/04/22 09:59:24;;;;;;;9.07;2.45;;;;;;;13.67;33.05;102627.03;5010981;28;20124;-49
2021/04/22 10:02:07;;;;;;;11.20;2.50;;;;;;;13.59;32.25;102622.09;5012102;28;20125;-49
2021/04/22 10:04:42;;;;;;;8.15;2.47;;;;;;;13.78;31.99;102616.75;5010822;28;20041;-50
2021/04/22 10:07:22;;;;;;;8.95;2.38;;;;;;;13.69;33.53;102618.09;5012157;28;20385;-57
2021/04/22 10:09:50;;;;;;;13.95;2.60;;;;;;;13.87;32.62;102612.81;5011871;28;20046;-56
2021/04/22 10:12:27;;;;;;;10.90;2.58;;;;;;;14.19;32.03;102618.19;5012129;28;20050;-51
2021/04/22 10:14:54;;;;;;;10.52;2.70;;;;;;;14.51;30.65;102618.31;5011669;28;20069;-56
2021/04/22 10:17:25;;;;;;;12.55;2.80;;;;;;;14.34;30.55;102612.13;5010760;28;20505;-56
2021/04/22 10:20:03;;;;;;;11.65;3.03;;;;;;;14.34;30.70;102614.78;5011783;28;20516;-56
2021/04/22 10:22:35;;;;;;;8.63;2.42;;;;;;;14.64;30.76;102611.44;5010703;28;20108;-55
2021/04/22 10:25:06;;;;;;;12.57;2.80;;;;;;;14.86;29.89;102600.53;5011930;28;20400;-56
2021/04/22 10:27:32;;;;;;;10.32;2.50;;;;;;;15.05;30.06;102604.75;5026820;28;20306;-56
2021/04/22 10:29:59;;;;;;;12.88;3.08;;;;;;;14.85;30.42;102608.56;5011648;28;20061;-56
2021/04/22 10:32:26;;;;;;;8.40;2.60;;;;;;;14.95;30.37;102599.13;5011847;28;20042;-56
2021/04/22 10:34:53;;;;;;;11.18;2.75;;;;;;;14.63;30.18;102609.72;5010652;28;20508;-55
2021/04/22 10:37:22;;;;;;;8.45;2.55;;;;;;;14.70;30.48;102605.81;5010640;28;20042;-51
2021/04/22 10:39:49;;;;;;;10.95;2.63;;;;;;;14.68;28.38;102606.81;5012138;28;20050;-48
2021/04/22 10:42:17;;;;;;;12.35;2.70;;;;;;;14.89;29.17;102610.09;5030555;28;20044;-56
2021/04/22 10:44:48;;;;;;;9.57;2.60;;;;;;;15.14;29.08;102598.09;5015509;28;20456;-56
2021/04/22 10:47:24;;;;;;;7.63;2.63;;;;;;;15.47;28.54;102594.47;5014825;28;20049;-57
2021/04/22 10:49:51;;;;;;;12.27;2.50;;;;;;;15.77;27.95;102588.28;5014142;28;20058;-55
2021/04/22 10:52:20;;;;;;;7.70;2.40;;;;;;;16.04;27.77;102589.31;5014345;28;20042;-56
2021/04/22 10:54:47;;;;;;;11.07;2.58;;;;;;;15.97;27.27;102592.44;5015355;28;20064;-57
2021/04/22 10:57:15;;;;;;;9.20;2.67;;;;;;;16.46;26.93;102583.25;4997841;28;20057;-56
2021/04/22 10:59:44;;;;;;;8.73;2.35;;;;;;;16.07;27.71;102580.31;5013639;28;20061;-56
2021/04/22 11:02:26;;;;;;;9.20;2.63;;;;;;;15.35;28.71;102586.28;4997891;28;20129;-57
2021/04/22 11:04:52;;;;;;;11.45;2.78;;;;;;;15.66;28.57;102583.63;5013994;28;20041;-56
2021/04/22 11:07:21;;;;;;;9.85;2.92;;;;;;;15.88;28.70;102578.78;5015098;28;20085;-56
2021/04/22 11:09:50;;;;;;;10.77;2.72;;;;;;;16.15;28.19;102580.69;5014955;28;20484;-57
2021/04/22 11:12:27;;;;;;;9.90;2.90;;;;;;;16.16;27.38;102582.41;5013735;28;20056;-56
2021/04/22 11:14:55;;;;;;;10.70;2.75;;;;;;;16.10;27.04;102587.22;5014589;28;20520;-56
2021/04/22 11:17:38;;;;;;;7.97;2.70;;;;;;;15.84;28.30;102587.00;5014700;28;20060;-52
2021/04/22 11:20:31;;;;;;;10.07;2.60;;;;;;;15.84;27.90;102589.66;5013343;28;20057;-52
2021/04/22 11:22:57;;;;;;;8.32;2.60;;;;;;;16.30;26.97;102581.53;5010715;28;20053;-57
2021/04/22 11:25:24;;;;;;;8.30;2.25;;;;;;;16.63;26.77;102588.34;5013517;28;20121;-50
2021/04/22 11:27:53;;;;;;;8.60;2.38;;;;;;;16.27;27.82;102591.50;5014495;28;20083;-51
2021/04/22 11:30:27;;;;;;;8.88;2.22;;;;;;;16.92;26.67;102590.13;5015396;28;20053;-50